Time;durP1;ratioP1;P1;durP2;ratioP2;P2;SDS_P1;SDS_P2;PMS_P1;PMS_P2;Temp;Humidity;BMP_temperature;BMP_pressure;BME280_temperature;BME280_humidity;BME280_pressure;Samples;Min_cycle;Max_cycle;Signal;HPM_P1;HPM_P2
2022/07/06 00:00:40;;;;;;;3.10;1.42;;;24.00;49.00;;;;;;10112929;28;20048;-62
2022/07/06 00:05:31;;;;;;;1.77;0.90;;;23.90;49.10;;;;;;10131786;28;20435;-58
2022/07/06 00:10:21;;;;;;;1.83;1.05;;;23.70;49.30;;;;;;10132209;28;20541;-57
2022/07/06 00:15:12;;;;;;;1.88;1.10;;;23.90;49.30;;;;;;10131549;28;20041;-56
2022/07/06 00:20:03;;;;;;;1.40;1.00;;;23.90;49.20;;;;;;10120710;28;20025;-58
2022/07/06 00:24:54;;;;;;;3.45;1.30;;;23.60;49.60;;;;;;10131477;28;20462;-60
2022/07/06 00:29:44;;;;;;;2.88;1.00;;;23.30;50.20;;;;;;10131059;28;20045;-58
2022/07/06 00:34:35;;;;;;;3.78;1.42;;;23.10;50.50;;;;;;10131477;28;20393;-60
2022/07/06 00:39:28;;;;;;;2.88;1.33;;;22.90;51.20;;;;;;10131213;28;20113;-57
2022/07/06 00:44:19;;;;;;;4.10;1.05;;;22.70;51.50;;;;;;10131264;28;20063;-59
2022/07/06 00:50:13;;;;;;;1.10;1.00;;;22.60;51.70;;;;;;10131458;28;20094;-58
2022/07/06 00:54:20;;;;;;;3.63;1.42;;;22.60;52.10;;;;;;10131058;28;20497;-57
2022/07/06 00:59:11;;;;;;;1.85;1.58;;;22.40;52.20;;;;;;10130637;28;20044;-69
2022/07/06 01:04:02;;;;;;;1.63;1.20;;;22.40;52.30;;;;;;10130049;28;20025;-68
2022/07/06 01:08:53;;;;;;;2.35;1.20;;;22.30;52.90;;;;;;10131169;28;20084;-58
2022/07/06 01:13:44;;;;;;;1.70;1.50;;;22.60;52.80;;;;;;10135612;28;20609;-58
2022/07/06 01:18:36;;;;;;;3.17;1.27;;;22.80;52.80;;;;;;10115699;28;20115;-61
2022/07/06 01:23:26;;;;;;;2.22;1.48;;;23.00;52.90;;;;;;10129952;28;20031;-58
2022/07/06 01:28:17;;;;;;;1.77;1.20;;;22.60;53.20;;;;;;10136443;28;20119;-57
2022/07/06 01:33:08;;;;;;;2.35;1.55;;;22.50;53.80;;;;;;10137376;28;20033;-61
2022/07/06 01:37:58;;;;;;;1.30;1.20;;;22.40;54.00;;;;;;10136295;28;20032;-58
2022/07/06 01:42:49;;;;;;;2.72;1.27;;;22.60;53.80;;;;;;10136714;28;20616;-59
2022/07/06 01:47:39;;;;;;;2.65;1.50;;;22.50;54.10;;;;;;10136616;28;20439;-58
2022/07/06 01:52:30;;;;;;;2.45;1.45;;;22.50;54.40;;;;;;10127759;28;20527;-59
2022/07/06 01:57:21;;;;;;;2.92;1.73;;;22.50;54.60;;;;;;10129582;28;20031;-58
2022/07/06 02:02:11;;;;;;;2.35;1.50;;;22.20;55.20;;;;;;10132255;28;20024;-57
2022/07/06 02:07:02;;;;;;;1.73;1.55;;;22.30;55.40;;;;;;10133642;28;20291;-63
2022/07/06 02:11:53;;;;;;;3.00;1.58;;;22.10;55.70;;;;;;10135898;28;20106;-60
2022/07/06 02:16:44;;;;;;;3.67;1.73;;;22.00;56.00;;;;;;10135724;28;20602;-58
2022/07/06 02:21:34;;;;;;;1.98;1.63;;;22.10;56.20;;;;;;10125491;28;20031;-59
2022/07/06 02:26:25;;;;;;;3.75;2.00;;;22.00;56.50;;;;;;10134264;28;20043;-58
2022/07/06 02:31:15;;;;;;;2.55;2.15;;;21.70;56.80;;;;;;10135017;28;20036;-58
2022/07/06 02:36:07;;;;;;;2.40;1.70;;;21.70;57.50;;;;;;10134377;28;20098;-58
2022/07/06 02:40:58;;;;;;;3.63;2.50;;;21.70;57.30;;;;;;10134880;28;20037;-59
2022/07/06 02:45:49;;;;;;;3.63;2.35;;;21.60;57.70;;;;;;10134874;28;20102;-60
2022/07/06 02:50:39;;;;;;;5.00;2.88;;;21.40;58.30;;;;;;10134417;28;20298;-57
2022/07/06 02:55:30;;;;;;;4.13;2.35;;;21.50;58.60;;;;;;10134257;28;20025;-58
2022/07/06 03:00:21;;;;;;;4.45;2.30;;;21.00;59.00;;;;;;10134332;28;20044;-58
2022/07/06 03:05:12;;;;;;;2.67;2.00;;;20.90;59.90;;;;;;10113562;28;20082;-58
2022/07/06 03:10:03;;;;;;;3.20;1.98;;;20.90;59.80;;;;;;10132382;28;20075;-58
2022/07/06 03:14:53;;;;;;;3.03;2.47;;;21.10;59.90;;;;;;10130050;28;20574;-58
2022/07/06 03:19:44;;;;;;;3.20;2.28;;;21.00;59.70;;;;;;10123783;28;20111;-60
2022/07/06 03:24:35;;;;;;;2.85;2.42;;;21.00;60.00;;;;;;10133212;28;20025;-58
2022/07/06 03:29:25;;;;;;;4.97;2.22;;;20.80;60.70;;;;;;10133670;28;20483;-57
2022/07/06 03:34:17;;;;;;;6.53;2.42;;;20.80;60.80;;;;;;10133064;28;20055;-58
2022/07/06 03:39:08;;;;;;;7.88;2.35;;;20.90;61.00;;;;;;10131639;28;20119;-60
2022/07/06 03:43:59;;;;;;;3.92;2.60;;;21.00;60.70;;;;;;10114355;28;20645;-58
2022/07/06 03:48:50;;;;;;;3.47;2.03;;;20.90;60.90;;;;;;10132141;28;20032;-61
2022/07/06 03:53:41;;;;;;;3.47;2.22;;;20.80;61.40;;;;;;10132091;28;20035;-58
2022/07/06 03:58:32;;;;;;;4.47;3.55;;;20.50;62.10;;;;;;10131254;28;20060;-59
2022/07/06 04:03:22;;;;;;;4.03;2.45;;;20.30;62.40;;;;;;10131779;28;20565;-58
2022/07/06 04:08:13;;;;;;;4.35;2.88;;;20.20;62.80;;;;;;10132557;28;20050;-58
2022/07/06 04:13:04;;;;;;;4.50;2.90;;;20.20;62.80;;;;;;10131316;28;20098;-58
2022/07/06 04:17:55;;;;;;;5.35;3.35;;;20.30;64.00;;;;;;10130610;28;20036;-58
2022/07/06 04:22:46;;;;;;;4.53;3.25;;;20.30;63.30;;;;;;10122362;28;20076;-58
2022/07/06 04:27:37;;;;;;;3.40;2.45;;;20.30;63.40;;;;;;10131930;28;20119;-65
2022/07/06 04:32:28;;;;;;;4.80;3.00;;;20.30;64.00;;;;;;10131635;28;20099;-61
2022/07/06 04:37:18;;;;;;;5.75;3.42;;;20.00;64.60;;;;;;10131353;28;20399;-59
2022/07/06 04:42:09;;;;;;;3.88;3.20;;;19.70;65.80;;;;;;10131479;28;20017;-60
2022/07/06 04:47:00;;;;;;;4.07;2.83;;;19.60;66.10;;;;;;10134246;28;20039;-59
2022/07/06 04:51:50;;;;;;;5.57;3.10;;;19.60;66.50;;;;;;10139124;28;20039;-67
2022/07/06 04:56:41;;;;;;;6.20;3.55;;;19.80;66.20;;;;;;10138037;28;20100;-58
2022/07/06 05:01:32;;;;;;;5.43;2.92;;;19.90;66.20;;;;;;10120608;28;20056;-56
2022/07/06 05:06:22;;;;;;;3.30;2.95;;;20.00;66.10;;;;;;10126533;28;20069;-58
2022/07/06 05:11:13;;;;;;;6.13;2.72;;;19.90;66.30;;;;;;10124649;28;20051;-58
2022/07/06 05:16:04;;;;;;;3.42;2.70;;;19.90;66.60;;;;;;10127286;28;20317;-58
2022/07/06 05:20:55;;;;;;;5.40;3.83;;;20.20;66.30;;;;;;10124015;28;20391;-57
2022/07/06 05:25:45;;;;;;;6.70;3.97;;;20.20;66.30;;;;;;10137727;28;20032;-58
2022/07/06 05:30:36;;;;;;;2.72;2.45;;;20.50;66.00;;;;;;10136857;28;20078;-59
2022/07/06 05:35:27;;;;;;;4.07;2.72;;;20.40;66.20;;;;;;10137254;28;20025;-59
2022/07/06 05:40:17;;;;;;;4.95;2.58;;;20.50;66.50;;;;;;10122357;28;20024;-64
2022/07/06 05:45:09;;;;;;;6.07;3.15;;;20.50;66.60;;;;;;10136083;28;20031;-59
2022/07/06 05:50:14;;;;;;;2.78;2.20;;;20.60;66.00;;;;;;10136466;28;20032;-59
2022/07/06 05:55:06;;;;;;;3.00;2.15;;;20.70;66.00;;;;;;10113778;28;20139;-58
2022/07/06 05:59:56;;;;;;;4.50;2.40;;;20.80;66.30;;;;;;10134191;28;20550;-58
2022/07/06 06:04:47;;;;;;;4.30;2.20;;;20.60;66.10;;;;;;10134524;28;20095;-60
2022/07/06 06:09:38;;;;;;;4.82;2.35;;;20.60;66.70;;;;;;10135086;28;20044;-66
2022/07/06 06:14:28;;;;;;;4.47;2.67;;;21.00;66.20;;;;;;10117032;28;20487;-63
2022/07/06 06:19:19;;;;;;;8.65;2.60;;;20.70;66.30;;;;;;10113223;28;20016;-59
2022/07/06 06:24:09;;;;;;;4.03;2.35;;;20.80;66.50;;;;;;10135097;28;20024;-57
2022/07/06 06:29:00;;;;;;;8.48;3.80;;;21.10;66.20;;;;;;10135972;28;20568;-59
2022/07/06 06:33:52;;;;;;;5.15;2.83;;;21.00;66.00;;;;;;10134928;28;20017;-59
2022/07/06 06:38:43;;;;;;;4.57;3.40;;;21.00;65.90;;;;;;10132216;28;20028;-58
2022/07/06 06:43:34;;;;;;;5.75;3.97;;;20.80;66.60;;;;;;10127121;28;20471;-58
2022/07/06 06:48:25;;;;;;;5.18;3.25;;;20.80;66.80;;;;;;10133607;28;20179;-57
2022/07/06 06:53:15;;;;;;;4.00;2.20;;;20.80;66.90;;;;;;10134562;28;20036;-58
2022/07/06 06:58:06;;;;;;;6.28;2.50;;;20.90;66.80;;;;;;10136019;28;20021;-57
2022/07/06 07:02:57;;;;;;;5.13;3.20;;;21.00;66.80;;;;;;10136506;28;20032;-59
2022/07/06 07:07:47;;;;;;;6.32;3.40;;;21.10;66.80;;;;;;10129057;28;20036;-56
2022/07/06 07:12:46;;;;;;;5.20;2.40;;;21.00;67.10;;;;;;10129009;28;20049;-59
2022/07/06 07:17:36;;;;;;;3.08;2.03;;;21.30;66.50;;;;;;10129400;28;20029;-59
2022/07/06 07:22:27;;;;;;;3.30;2.10;;;21.10;66.90;;;;;;10131702;28;20582;-57
2022/07/06 07:27:18;;;;;;;3.30;1.95;;;21.10;67.00;;;;;;10131480;28;20659;-58
2022/07/06 07:32:08;;;;;;;2.63;1.80;;;21.30;66.70;;;;;;10132592;28;20077;-60
2022/07/06 07:36:59;;;;;;;4.60;2.05;;;21.50;66.30;;;;;;10130393;28;20093;-57
2022/07/06 07:41:52;;;;;;;4.93;2.20;;;21.50;66.20;;;;;;10126670;28;20020;-60
2022/07/06 07:46:43;;;;;;;4.75;2.28;;;21.50;66.30;;;;;;10129538;28;20047;-53
2022/07/06 07:51:34;;;;;;;3.75;2.47;;;21.60;66.20;;;;;;10128026;28;20021;-59
2022/07/06 07:56:24;;;;;;;5.13;1.92;;;21.50;66.10;;;;;;10133628;28;20565;-62
2022/07/06 08:01:15;;;;;;;2.10;1.90;;;21.60;66.10;;;;;;10113861;28;20036;-60
2022/07/06 08:06:06;;;;;;;3.08;1.85;;;21.50;66.10;;;;;;10132395;28;20414;-61
2022/07/06 08:10:56;;;;;;;3.35;2.35;;;21.50;66.10;;;;;;10130583;28;20049;-60
2022/07/06 08:15:47;;;;;;;8.60;3.45;;;21.70;66.10;;;;;;10132294;28;20025;-58
2022/07/06 08:20:38;;;;;;;2.72;1.77;;;21.80;66.00;;;;;;10130765;28;20090;-61
2022/07/06 08:25:29;;;;;;;6.60;2.17;;;21.80;65.90;;;;;;10121475;28;20024;-57
2022/07/06 08:30:20;;;;;;;5.60;2.08;;;21.90;65.80;;;;;;10160627;22;20222;-59
2022/07/06 08:35:10;;;;;;;2.78;2.13;;;22.20;65.60;;;;;;10139171;28;20546;-61
2022/07/06 08:40:01;;;;;;;2.85;1.90;;;22.40;65.30;;;;;;10135930;28;20555;-60
2022/07/06 08:44:54;;;;;;;2.30;2.10;;;22.40;65.40;;;;;;10140809;28;20386;-59
2022/07/06 08:49:45;;;;;;;2.80;2.00;;;22.30;65.60;;;;;;10137767;28;20321;-60
2022/07/06 08:54:37;;;;;;;3.83;1.85;;;22.30;65.40;;;;;;10137695;28;20047;-59
2022/07/06 08:59:28;;;;;;;2.60;1.88;;;22.50;65.20;;;;;;10138236;28;20028;-59
2022/07/06 09:04:22;;;;;;;4.07;2.30;;;22.80;64.90;;;;;;10135009;28;20016;-55
2022/07/06 09:09:19;;;;;;;3.05;2.38;;;23.00;64.60;;;;;;10135980;28;20447;-58
2022/07/06 09:14:10;;;;;;;1.75;1.65;;;22.90;64.50;;;;;;10138466;28;20031;-59
2022/07/06 09:19:01;;;;;;;5.47;2.95;;;23.00;64.40;;;;;;10135093;28;20025;-58
2022/07/06 09:23:56;;;;;;;3.72;2.05;;;22.90;64.30;;;;;;10138099;28;20025;-54
2022/07/06 09:28:47;;;;;;;3.40;2.17;;;22.90;64.40;;;;;;10137948;28;20091;-57
2022/07/06 09:33:38;;;;;;;4.68;2.40;;;23.00;64.00;;;;;;10136636;28;20082;-57
2022/07/06 09:38:29;;;;;;;4.15;2.38;;;22.90;63.90;;;;;;10131095;28;20033;-57
2022/07/06 09:43:22;;;;;;;2.10;1.80;;;23.00;64.00;;;;;;10108905;28;20094;-57
2022/07/06 09:48:22;;;;;;;5.47;2.17;;;23.20;63.80;;;;;;10135606;28;20032;-54
2022/07/06 09:53:14;;;;;;;5.75;2.45;;;23.30;63.30;;;;;;10135432;28;20068;-55
2022/07/06 09:58:05;;;;;;;6.10;2.63;;;23.30;63.30;;;;;;10135076;28;20020;-59
2022/07/06 10:02:56;;;;;;;5.10;2.30;;;23.40;63.00;;;;;;10135869;28;20395;-55
2022/07/06 10:07:49;;;;;;;2.78;2.10;;;23.40;63.00;;;;;;10136418;28;20032;-61
2022/07/06 10:12:42;;;;;;;3.20;1.77;;;23.40;63.00;;;;;;10136817;28;20032;-55
2022/07/06 10:17:33;;;;;;;3.67;2.03;;;23.60;62.70;;;;;;10134465;28;20070;-57
2022/07/06 10:22:24;;;;;;;4.68;2.15;;;23.70;61.90;;;;;;10114792;28;20115;-60
2022/07/06 10:27:15;;;;;;;6.13;3.30;;;23.70;61.60;;;;;;10135229;28;20135;-56
2022/07/06 10:32:07;;;;;;;4.30;2.00;;;23.90;61.30;;;;;;10134796;28;20048;-58
2022/07/06 10:36:57;;;;;;;3.70;2.22;;;23.90;62.10;;;;;;10134481;28;20027;-56
2022/07/06 10:41:48;;;;;;;3.78;1.75;;;23.70;61.50;;;;;;10135188;28;20412;-52
2022/07/06 10:46:39;;;;;;;4.00;2.55;;;23.80;61.20;;;;;;10133529;28;20048;-60
2022/07/06 10:51:33;;;;;;;2.90;2.15;;;24.20;60.70;;;;;;10133407;28;20239;-55
2022/07/06 10:56:37;;;;;;;4.57;1.90;;;24.20;60.20;;;;;;10133710;28;20466;-56
2022/07/06 11:01:29;;;;;;;2.05;1.75;;;24.30;59.80;;;;;;10133482;28;20141;-53
2022/07/06 11:06:22;;;;;;;3.83;1.98;;;24.50;59.70;;;;;;10133372;28;20047;-56
2022/07/06 11:11:21;;;;;;;4.82;2.13;;;24.50;59.80;;;;;;10132879;28;20036;-60
2022/07/06 11:16:13;;;;;;;3.92;2.05;;;24.50;59.90;;;;;;10132681;28;20508;-55
2022/07/06 11:21:16;;;;;;;3.90;2.10;;;24.30;59.90;;;;;;10123539;28;20028;-55
2022/07/06 11:26:09;;;;;;;5.57;2.10;;;24.20;59.70;;;;;;10130300;28;20498;-54
2022/07/06 11:31:00;;;;;;;7.07;2.25;;;24.20;60.00;;;;;;10130770;28;20044;-55
2022/07/06 11:35:50;;;;;;;2.25;2.03;;;24.30;59.70;;;;;;10133961;28;20507;-59
2022/07/06 11:40:41;;;;;;;5.63;2.47;;;24.10;59.60;;;;;;10115115;28;20032;-56
2022/07/06 11:45:32;;;;;;;5.30;1.40;;;24.20;59.50;;;;;;10133564;28;20039;-58
2022/07/06 11:50:22;;;;;;;4.28;1.95;;;24.00;59.70;;;;;;10133277;28;20028;-58
2022/07/06 11:55:15;;;;;;;2.20;1.60;;;24.00;59.60;;;;;;10134538;28;20028;-58
2022/07/06 12:00:06;;;;;;;2.83;1.48;;;24.10;59.30;;;;;;10134005;28;20028;-60
2022/07/06 12:04:56;;;;;;;1.80;1.50;;;24.30;58.70;;;;;;10133077;28;20030;-60
2022/07/06 12:09:47;;;;;;;5.13;1.75;;;24.50;58.40;;;;;;10133826;28;20119;-59
2022/07/06 12:14:40;;;;;;;1.67;1.40;;;24.40;58.10;;;;;;10130037;28;20123;-59
2022/07/06 12:19:30;;;;;;;3.83;1.23;;;24.60;58.10;;;;;;10128222;28;20055;-59
2022/07/06 12:24:33;;;;;;;3.38;1.67;;;25.20;58.10;;;;;;10132447;28;20435;-59
2022/07/06 12:29:24;;;;;;;5.97;1.90;;;25.70;57.50;;;;;;10130299;28;20048;-61
2022/07/06 12:34:22;;;;;;;2.42;1.98;;;26.00;57.00;;;;;;10130667;28;20116;-59
2022/07/06 12:39:15;;;;;;;3.20;1.30;;;26.40;56.80;;;;;;10130001;28;20032;-60
2022/07/06 12:44:08;;;;;;;1.85;1.20;;;26.80;56.80;;;;;;10130920;28;20120;-60
2022/07/06 12:49:01;;;;;;;1.50;1.15;;;27.00;56.20;;;;;;10130909;28;20116;-60
2022/07/06 12:53:51;;;;;;;2.47;0.95;;;27.20;55.30;;;;;;10117881;28;20391;-59
2022/07/06 12:59:00;;;;;;;2.60;1.23;;;28.00;54.00;;;;;;10131087;28;20028;-60
2022/07/06 13:03:55;;;;;;;1.40;1.08;;;28.30;52.30;;;;;;10119663;28;20077;-60
2022/07/06 13:08:46;;;;;;;2.47;1.10;;;29.10;51.40;;;;;;10116027;28;20051;-60
2022/07/06 13:13:43;;;;;;;1.35;0.88;;;29.70;49.70;;;;;;10137508;28;20043;-59
2022/07/06 13:18:34;;;;;;;1.27;1.00;;;30.60;47.70;;;;;;10117175;28;20891;-58
2022/07/06 13:23:25;;;;;;;1.30;1.00;;;31.40;46.40;;;;;;10137243;28;20036;-59
2022/07/06 13:28:15;;;;;;;2.78;1.20;;;32.30;45.00;;;;;;10136687;28;20037;-59
2022/07/06 13:33:06;;;;;;;3.27;1.10;;;32.60;44.10;;;;;;10135731;28;20051;-60
2022/07/06 13:37:57;;;;;;;2.20;1.53;;;32.80;43.10;;;;;;10134530;28;20017;-59
2022/07/06 13:42:47;;;;;;;1.98;1.80;;;32.40;42.20;;;;;;10135955;28;20059;-58
2022/07/06 13:47:38;;;;;;;3.20;1.50;;;31.30;42.00;;;;;;10134211;28;20040;-60
2022/07/06 13:52:29;;;;;;;2.15;0.70;;;31.00;41.20;;;;;;10136961;28;20382;-60
2022/07/06 13:57:19;;;;;;;2.05;0.73;;;31.00;40.90;;;;;;10136084;28;20035;-59
2022/07/06 14:02:10;;;;;;;1.55;1.00;;;30.10;40.40;;;;;;10136611;28;20333;-59
2022/07/06 14:07:02;;;;;;;2.50;0.90;;;30.10;40.10;;;;;;10136840;28;20123;-59
2022/07/06 14:11:52;;;;;;;1.58;0.70;;;29.50;40.10;;;;;;10136611;28;20123;-60
2022/07/06 14:16:43;;;;;;;2.65;0.93;;;28.60;40.70;;;;;;10117903;28;20463;-60
2022/07/06 14:21:33;;;;;;;1.02;0.88;;;29.30;40.40;;;;;;10126628;28;20021;-62
2022/07/06 14:26:24;;;;;;;5.18;1.13;;;30.00;40.00;;;;;;10115541;28;20135;-60
2022/07/06 14:31:15;;;;;;;2.00;0.95;;;33.00;39.40;;;;;;10134497;28;20154;-58
2022/07/06 14:36:06;;;;;;;2.38;0.90;;;33.50;38.50;;;;;;10134319;28;20028;-60
2022/07/06 14:40:56;;;;;;;1.53;0.80;;;33.70;38.40;;;;;;10133919;28;20099;-60
2022/07/06 14:45:47;;;;;;;1.87;0.90;;;33.90;37.80;;;;;;10134908;28;20029;-58
2022/07/06 14:50:38;;;;;;;1.43;1.03;;;34.60;37.30;;;;;;10135241;28;20120;-59
2022/07/06 14:55:28;;;;;;;0.87;0.70;;;34.40;36.70;;;;;;10135099;28;20036;-59
2022/07/06 15:00:19;;;;;;;1.40;0.97;;;34.20;36.10;;;;;;10134070;28;20491;-58
2022/07/06 15:05:11;;;;;;;1.40;1.00;;;33.10;36.30;;;;;;10132935;28;20028;-60
2022/07/06 15:10:04;;;;;;;1.80;0.80;;;32.70;36.60;;;;;;10133664;28;20398;-59
2022/07/06 15:14:54;;;;;;;2.28;0.90;;;31.00;36.80;;;;;;10133050;28;20560;-59
2022/07/06 15:19:45;;;;;;;4.13;1.10;;;29.20;37.40;;;;;;10132847;28;20253;-59
2022/07/06 15:24:36;;;;;;;2.15;1.30;;;28.50;37.50;;;;;;10132379;28;20046;-60
2022/07/06 15:29:26;;;;;;;1.88;1.10;;;28.30;37.50;;;;;;10131648;28;20088;-65
2022/07/06 15:34:17;;;;;;;2.38;1.05;;;28.00;37.80;;;;;;10131754;28;20035;-58
2022/07/06 15:39:08;;;;;;;4.65;0.98;;;28.10;37.90;;;;;;10132284;28;20020;-59
2022/07/06 15:43:58;;;;;;;2.55;1.40;;;28.90;37.90;;;;;;10132190;28;20479;-60
2022/07/06 15:48:49;;;;;;;1.42;1.00;;;29.20;38.00;;;;;;10131572;28;20063;-58
2022/07/06 15:53:40;;;;;;;2.00;1.00;;;28.90;38.50;;;;;;10131217;28;20568;-57
2022/07/06 15:58:31;;;;;;;3.25;1.10;;;29.40;38.70;;;;;;10134171;28;20037;-63
2022/07/06 16:03:22;;;;;;;2.00;0.93;;;30.30;38.50;;;;;;10110504;28;20035;-63
2022/07/06 16:08:12;;;;;;;3.00;1.23;;;29.20;39.30;;;;;;10129791;28;20024;-59
2022/07/06 16:13:03;;;;;;;2.63;1.05;;;28.90;39.50;;;;;;10131287;28;20039;-59
2022/07/06 16:17:54;;;;;;;2.95;1.10;;;28.60;39.80;;;;;;10113404;28;20044;-60
2022/07/06 16:22:47;;;;;;;3.10;1.55;;;28.50;39.70;;;;;;10121903;28;20021;-61
2022/07/06 16:27:38;;;;;;;2.33;1.37;;;28.20;40.00;;;;;;10131069;28;20467;-60
2022/07/06 16:32:30;;;;;;;3.40;1.23;;;27.30;40.60;;;;;;10131452;28;20397;-60
2022/07/06 16:37:20;;;;;;;2.90;1.58;;;26.70;41.10;;;;;;10130585;28;20062;-60
2022/07/06 16:42:11;;;;;;;3.50;1.77;;;26.60;41.20;;;;;;10135606;28;20045;-61
2022/07/06 16:47:02;;;;;;;1.30;0.93;;;27.20;40.80;;;;;;10140343;28;20530;-60
2022/07/06 16:51:53;;;;;;;2.95;1.30;;;27.30;40.70;;;;;;10139508;28;20051;-60
2022/07/06 16:56:43;;;;;;;2.10;1.00;;;28.00;40.80;;;;;;10138609;28;20020;-60
2022/07/06 17:01:34;;;;;;;3.63;1.20;;;27.90;40.80;;;;;;10120369;28;20032;-61
2022/07/06 17:06:26;;;;;;;5.35;1.13;;;27.40;41.30;;;;;;10138015;28;20039;-60
2022/07/06 17:11:17;;;;;;;1.75;1.20;;;27.50;41.20;;;;;;10138569;28;20032;-60
2022/07/06 17:16:08;;;;;;;3.53;1.30;;;26.90;41.50;;;;;;10137163;28;20020;-59
2022/07/06 17:20:58;;;;;;;1.85;1.30;;;26.90;41.20;;;;;;10127513;28;20051;-59
2022/07/06 17:25:49;;;;;;;1.52;1.13;;;30.70;38.90;;;;;;10137847;28;20479;-59
2022/07/06 17:30:42;;;;;;;2.20;1.30;;;32.10;37.60;;;;;;10136122;28;20625;-61
2022/07/06 17:35:33;;;;;;;1.70;1.20;;;30.60;38.80;;;;;;10134654;28;20016;-63
2022/07/06 17:40:24;;;;;;;3.20;1.20;;;30.40;38.50;;;;;;10134789;28;20052;-60
2022/07/06 17:45:15;;;;;;;4.82;1.48;;;28.80;39.70;;;;;;10135120;28;20406;-62
2022/07/06 17:50:06;;;;;;;3.38;1.33;;;28.10;40.10;;;;;;10135159;28;20285;-59
2022/07/06 17:54:57;;;;;;;4.47;1.33;;;28.70;40.00;;;;;;10119257;28;20021;-59
2022/07/06 17:59:47;;;;;;;3.20;1.40;;;27.90;40.30;;;;;;10132219;28;20055;-60
2022/07/06 18:04:38;;;;;;;2.70;1.10;;;28.10;40.90;;;;;;10122659;28;20529;-59
2022/07/06 18:09:29;;;;;;;2.90;1.33;;;27.60;40.90;;;;;;10124184;28;20037;-61
2022/07/06 18:14:20;;;;;;;3.38;1.50;;;26.90;41.70;;;;;;10133799;28;20028;-63
2022/07/06 18:19:11;;;;;;;3.55;1.38;;;26.10;42.40;;;;;;10127327;28;20549;-64
2022/07/06 18:24:04;;;;;;;1.42;1.08;;;26.20;42.60;;;;;;10131982;28;20075;-60
2022/07/06 18:28:54;;;;;;;4.07;2.03;;;25.70;42.80;;;;;;10088122;28;1221052;-63
2022/07/06 18:33:45;;;;;;;3.55;1.63;;;25.10;44.00;;;;;;10125874;28;20037;-61
2022/07/06 18:38:37;;;;;;;4.30;1.50;;;24.80;43.80;;;;;;10138481;28;20032;-65
2022/07/06 18:43:28;;;;;;;3.30;1.70;;;24.60;44.00;;;;;;10135178;28;20051;-66
2022/07/06 18:48:18;;;;;;;3.97;1.27;;;24.40;44.60;;;;;;10134373;28;20032;-64
2022/07/06 18:53:11;;;;;;;4.05;1.40;;;24.40;44.60;;;;;;10135780;28;20033;-64
2022/07/06 18:58:02;;;;;;;1.85;1.60;;;24.40;44.40;;;;;;10134233;28;20115;-61
2022/07/06 19:02:53;;;;;;;5.30;2.22;;;24.20;45.00;;;;;;10133296;28;20644;-64
2022/07/06 19:07:44;;;;;;;2.90;1.48;;;24.10;45.40;;;;;;10115093;28;20039;-62
2022/07/06 19:12:34;;;;;;;3.05;1.20;;;23.90;45.50;;;;;;10133656;28;20024;-61
2022/07/06 19:17:25;;;;;;;4.10;1.25;;;23.70;45.90;;;;;;10133220;28;20124;-71
2022/07/06 19:22:16;;;;;;;4.00;1.20;;;23.70;46.00;;;;;;10124845;28;20522;-68
2022/07/06 19:27:06;;;;;;;2.78;1.55;;;23.50;47.10;;;;;;10133870;28;20031;-63
2022/07/06 19:31:57;;;;;;;5.80;1.73;;;23.50;46.70;;;;;;10134002;28;20185;-62
2022/07/06 19:36:48;;;;;;;2.92;1.30;;;23.40;46.90;;;;;;10115000;28;20028;-63
2022/07/06 19:41:39;;;;;;;3.85;1.35;;;23.50;47.10;;;;;;10132614;28;20120;-64
2022/07/06 19:46:29;;;;;;;6.20;2.40;;;23.70;47.00;;;;;;10132975;28;20036;-63
2022/07/06 19:51:20;;;;;;;2.95;1.52;;;23.50;47.20;;;;;;10134053;28;20366;-68
2022/07/06 19:56:12;;;;;;;4.35;1.30;;;23.50;47.30;;;;;;10134207;28;20099;-62
2022/07/06 20:01:03;;;;;;;2.30;1.20;;;23.60;47.40;;;;;;10133785;28;20284;-61
2022/07/06 20:05:54;;;;;;;2.55;1.15;;;23.60;47.50;;;;;;10132965;28;20291;-60
2022/07/06 20:10:45;;;;;;;3.42;0.90;;;23.40;47.60;;;;;;10134789;28;20086;-61
2022/07/06 20:15:35;;;;;;;3.75;0.98;;;23.30;48.10;;;;;;10133524;28;20043;-67
2022/07/06 20:20:27;;;;;;;5.53;1.45;;;23.30;47.80;;;;;;10131706;28;20410;-66
2022/07/06 20:25:18;;;;;;;3.72;1.30;;;23.30;48.00;;;;;;10132609;28;20468;-65
2022/07/06 20:30:09;;;;;;;2.80;1.45;;;23.30;48.20;;;;;;10125054;28;20052;-64
2022/07/06 20:35:00;;;;;;;2.30;1.00;;;23.30;48.20;;;;;;10133763;28;20277;-66
2022/07/06 20:39:51;;;;;;;1.50;1.35;;;23.20;48.40;;;;;;10139158;28;20032;-68
2022/07/06 20:44:44;;;;;;;2.63;1.20;;;23.30;48.40;;;;;;10120155;28;20074;-67
2022/07/06 20:49:34;;;;;;;3.28;1.88;;;23.30;48.30;;;;;;10132332;28;20041;-69
2022/07/06 20:54:25;;;;;;;3.50;1.33;;;23.30;48.50;;;;;;10130862;28;20016;-66
2022/07/06 20:59:16;;;;;;;3.97;1.13;;;23.10;48.90;;;;;;10121805;28;20029;-65
2022/07/06 21:04:06;;;;;;;3.78;1.60;;;23.00;48.90;;;;;;10128771;28;20040;-67
2022/07/06 21:08:57;;;;;;;4.40;1.80;;;23.10;49.00;;;;;;10130273;28;20040;-67
2022/07/06 21:13:48;;;;;;;4.28;1.55;;;23.00;49.20;;;;;;10131176;28;20070;-65
2022/07/06 21:18:38;;;;;;;2.78;1.40;;;23.00;49.50;;;;;;10127217;28;20048;-66
2022/07/06 21:23:30;;;;;;;5.80;1.88;;;22.90;49.40;;;;;;10123712;28;20081;-67
2022/07/06 21:28:20;;;;;;;2.72;1.20;;;22.70;49.90;;;;;;10132241;28;20055;-66
2022/07/06 21:33:11;;;;;;;2.38;1.65;;;22.60;50.00;;;;;;10137526;28;20040;-68
2022/07/06 21:38:02;;;;;;;3.10;1.33;;;22.60;50.20;;;;;;10119367;28;20032;-67
2022/07/06 21:42:53;;;;;;;2.40;1.30;;;22.40;50.40;;;;;;10137684;28;20076;-69
2022/07/06 21:47:44;;;;;;;2.72;1.60;;;22.30;50.60;;;;;;10138798;28;20513;-69
2022/07/06 21:52:34;;;;;;;5.63;2.28;;;22.40;50.80;;;;;;10119429;28;20036;-69
2022/07/06 21:57:25;;;;;;;4.35;1.60;;;22.50;50.80;;;;;;10137969;28;20024;-68
2022/07/06 22:02:16;;;;;;;2.67;1.63;;;22.40;50.90;;;;;;10137345;28;20081;-69
2022/07/06 22:07:06;;;;;;;7.70;5.10;;;22.50;51.00;;;;;;10136447;28;20017;-69
2022/07/06 22:11:58;;;;;;;2.00;1.77;;;22.30;51.40;;;;;;10137457;28;20035;-67
2022/07/06 22:16:48;;;;;;;2.58;1.30;;;22.20;51.60;;;;;;10136401;28;20024;-68
2022/07/06 22:21:39;;;;;;;3.95;1.50;;;22.40;51.50;;;;;;10113551;28;20025;-69
2022/07/06 22:26:30;;;;;;;2.20;1.02;;;22.50;51.70;;;;;;10136518;28;20028;-68
2022/07/06 22:31:21;;;;;;;2.45;1.60;;;22.40;51.90;;;;;;10135992;28;20083;-69
2022/07/06 22:36:17;;;;;;;5.40;2.33;;;22.40;51.90;;;;;;10119143;28;20056;-70
2022/07/06 22:41:08;;;;;;;3.65;1.73;;;22.30;52.30;;;;;;10120868;28;20023;-69
2022/07/06 22:46:00;;;;;;;3.15;1.38;;;21.90;52.50;;;;;;10145241;28;20127;-70
2022/07/06 22:50:51;;;;;;;3.53;1.08;;;21.80;52.70;;;;;;10148563;28;20036;-69
2022/07/06 22:55:41;;;;;;;2.60;1.40;;;21.60;52.80;;;;;;10141417;28;20024;-71
2022/07/06 23:00:32;;;;;;;1.77;1.33;;;21.80;52.70;;;;;;10136528;28;20530;-69
2022/07/06 23:05:23;;;;;;;3.15;1.25;;;21.80;52.50;;;;;;10134984;28;20020;-69
2022/07/06 23:10:14;;;;;;;3.28;1.10;;;21.90;52.70;;;;;;10134694;28;20081;-70
2022/07/06 23:15:05;;;;;;;2.50;1.55;;;21.90;52.70;;;;;;10134746;28;20094;-70
2022/07/06 23:19:56;;;;;;;2.00;1.42;;;21.70;52.70;;;;;;10123736;28;20029;-69
2022/07/06 23:24:47;;;;;;;1.92;1.52;;;21.80;52.90;;;;;;10133707;28;20028;-69
2022/07/06 23:29:40;;;;;;;1.80;1.30;;;21.80;53.00;;;;;;10134050;28;20051;-69
2022/07/06 23:34:30;;;;;;;2.70;1.40;;;21.60;53.40;;;;;;10133778;28;20027;-71
2022/07/06 23:39:21;;;;;;;6.97;2.60;;;21.60;53.60;;;;;;10135256;28;20042;-70
2022/07/06 23:44:11;;;;;;;1.20;1.10;;;21.40;53.70;;;;;;10134433;28;20013;-71
2022/07/06 23:49:02;;;;;;;2.55;1.77;;;21.30;53.90;;;;;;10133812;28;20040;-70
2022/07/06 23:53:53;;;;;;;2.97;1.30;;;21.30;54.10;;;;;;10114857;28;20549;-70
2022/07/06 23:58:43;;;;;;;2.80;1.40;;;21.30;54.10;;;;;;10133388;28;20255;-71
